Time;durP1;ratioP1;P1;durP2;ratioP2;P2;SDS_P1;SDS_P2;PMS_P1;PMS_P2;Temp;Humidity;BMP_temperature;BMP_pressure;BME280_temperature;BME280_humidity;BME280_pressure;Samples;Min_cycle;Max_cycle;Signal;HPM_P1;HPM_P2
2021/01/03 00:02:01;;;;;;;3.30;1.40;;;;;;;6.50;63.19;99638.38;4374627;32;35761;-81
2021/01/03 00:04:30;;;;;;;2.20;1.35;;;;;;;6.23;63.67;99633.50;4373603;32;35964;-82
2021/01/03 00:06:57;;;;;;;2.53;1.10;;;;;;;6.52;63.06;99631.19;4361959;32;34666;-81
2021/01/03 00:09:26;;;;;;;2.00;1.90;;;;;;;6.25;63.83;99621.00;4374548;32;34443;-81
2021/01/03 00:11:54;;;;;;;1.17;1.15;;;;;;;6.48;62.81;99614.75;4373604;32;34731;-81
2021/01/03 00:14:22;;;;;;;3.17;1.75;;;;;;;6.59;62.63;99614.72;4374294;32;34673;-81
2021/01/03 00:16:53;;;;;;;1.70;1.23;;;;;;;6.56;62.66;99614.97;4374185;32;32434;-81
2021/01/03 00:19:20;;;;;;;4.05;1.83;;;;;;;6.48;62.29;99629.75;4374399;32;33516;-81
2021/01/03 00:21:49;;;;;;;;;;;;;;;6.36;63.12;99639.47;4374775;32;37905;-81
2021/01/03 00:24:16;;;;;;;1.23;1.12;;;;;;;6.50;62.63;99633.09;4361377;32;34460;-81
2021/01/03 00:26:44;;;;;;;3.25;2.47;;;;;;;6.67;61.95;99616.72;4374156;32;33231;-81
2021/01/03 00:29:12;;;;;;;3.08;2.03;;;;;;;6.19;63.00;99616.22;4373964;32;34017;-81
2021/01/03 00:31:45;;;;;;;1.80;1.70;;;;;;;6.25;63.63;99614.91;4374234;32;35885;-81
2021/01/03 00:34:15;;;;;;;3.78;1.33;;;;;;;6.38;62.65;99605.03;4361731;32;33488;-81
2021/01/03 00:36:42;;;;;;;2.25;2.15;;;;;;;6.41;62.21;99610.91;4374059;32;32916;-81
2021/01/03 00:39:12;;;;;;;2.15;1.65;;;;;;;6.26;62.49;99616.56;4374560;32;33958;-81
2021/01/03 00:41:39;;;;;;;1.55;1.00;;;;;;;6.25;62.35;99620.19;4361598;32;36728;-81
2021/01/03 00:44:07;;;;;;;2.50;2.30;;;;;;;6.08;63.26;99616.22;4373972;32;35370;-81
2021/01/03 00:46:34;;;;;;;1.35;1.33;;;;;;;6.30;62.19;99624.12;4374187;32;33929;-81
2021/01/03 00:49:04;;;;;;;1.33;1.23;;;;;;;6.23;62.21;99617.66;4386536;32;33617;-81
2021/01/03 00:51:31;;;;;;;2.00;1.77;;;;;;;6.31;62.38;99623.16;4373908;32;36601;-81
2021/01/03 00:53:59;;;;;;;1.42;0.88;;;;;;;6.44;61.44;99615.13;4374154;32;34918;-81
2021/01/03 00:56:26;;;;;;;1.50;1.40;;;;;;;6.21;62.18;99621.38;4373965;32;33087;-81
2021/01/03 00:58:54;;;;;;;0.95;0.93;;;;;;;6.32;61.86;99622.22;4374163;32;33769;-81
2021/01/03 01:01:22;;;;;;;4.12;2.33;;;;;;;6.09;61.89;99614.44;4374151;32;35294;-81
2021/01/03 01:03:50;;;;;;;4.10;2.12;;;;;;;6.06;62.39;99620.78;4386249;32;34275;-81
2021/01/03 01:06:18;;;;;;;1.30;0.88;;;;;;;6.16;62.24;99610.34;4373763;32;35266;-81
2021/01/03 01:08:46;;;;;;;2.62;1.77;;;;;;;5.80;63.12;99603.50;4374302;32;33686;-81
2021/01/03 01:11:14;;;;;;;2.37;1.17;;;;;;;6.01;62.61;99593.91;4373702;32;36768;-81
2021/01/03 01:13:41;;;;;;;0.77;0.77;;;;;;;6.20;61.47;99590.63;4374009;32;34524;-81
2021/01/03 01:16:09;;;;;;;2.03;0.70;;;;;;;5.99;62.33;99589.69;4374023;32;35151;-81
2021/01/03 01:18:37;;;;;;;2.15;1.25;;;;;;;5.86;62.82;99587.19;4373998;32;33360;-81
2021/01/03 01:21:06;;;;;;;1.60;1.50;;;;;;;5.91;62.25;99589.47;4373451;32;36240;-81
2021/01/03 01:23:33;;;;;;;2.87;1.87;;;;;;;6.03;61.87;99591.13;4373186;32;35054;-81
2021/01/03 01:26:01;;;;;;;1.52;1.40;;;;;;;6.01;62.10;99599.19;4373691;32;35058;-81
2021/01/03 01:28:28;;;;;;;0.67;0.67;;;;;;;5.78;62.49;99612.47;4385880;32;33634;-82
2021/01/03 01:30:57;;;;;;;0.93;0.77;;;;;;;5.84;62.37;99606.72;4361371;32;35879;-81
2021/01/03 01:33:24;;;;;;;1.00;0.70;;;;;;;6.10;61.73;99608.19;4373571;32;33819;-81
2021/01/03 01:35:53;;;;;;;2.05;1.12;;;;;;;5.98;61.94;99614.44;4373617;32;34071;-81
2021/01/03 01:38:21;;;;;;;2.42;1.37;;;;;;;5.74;62.85;99629.50;4373685;32;33691;-81
2021/01/03 01:40:49;;;;;;;1.37;1.27;;;;;;;5.96;nan;99632.19;4373977;32;36837;-81
2021/01/03 01:43:17;;;;;;;0.80;0.60;;;;;;;6.06;61.79;99646.38;4386205;32;34981;-81
2021/01/03 01:45:46;;;;;;;1.40;1.30;;;;;;;6.04;61.54;99633.28;4373866;32;33108;-81
2021/01/03 01:48:18;;;;;;;0.75;0.75;;;;;;;5.87;62.00;99632.91;4385922;32;34314;-82
2021/01/03 01:50:48;;;;;;;1.08;1.02;;;;;;;5.95;61.83;99617.31;4361186;32;36063;-81
2021/01/03 01:53:21;;;;;;;1.25;1.25;;;;;;;5.92;61.89;99599.91;4385883;32;33524;-81
2021/01/03 01:55:54;;;;;;;1.33;0.32;;;;;;;5.92;61.63;99573.50;4373388;32;33425;-81
2021/01/03 01:58:43;;;;;;;0.68;0.68;;;;;;;5.72;62.25;99576.84;4385921;32;34572;-82
2021/01/03 02:01:16;;;;;;;3.85;1.55;;;;;;;5.63;62.72;99558.22;4372780;32;37029;-81
2021/01/03 02:04:15;;;;;;;3.87;1.17;;;;;;;5.67;62.49;99563.16;4373695;32;34676;-81
2021/01/03 02:06:51;;;;;;;1.73;1.10;;;;;;;5.67;62.08;99565.78;4385766;32;35458;-81
2021/01/03 02:09:26;;;;;;;1.17;1.08;;;;;;;5.45;63.06;99575.47;4373748;32;34217;-81
2021/01/03 02:12:29;;;;;;;1.20;1.10;;;;;;;5.79;61.70;99583.34;4373406;32;35375;-81
2021/01/03 02:14:58;;;;;;;1.15;0.95;;;;;;;5.54;62.45;99591.47;4357488;32;34056;-81
2021/01/03 02:17:27;;;;;;;0.43;0.43;;;;;;;5.67;62.38;99586.91;4373411;32;33303;-81
2021/01/03 02:19:57;;;;;;;1.73;1.42;;;;;;;5.93;62.01;99576.97;4373163;32;34727;-81
2021/01/03 02:22:32;;;;;;;0.88;0.88;;;;;;;5.90;61.56;99580.72;4385641;32;34771;-81
2021/01/03 02:25:03;;;;;;;2.62;1.23;;;;;;;5.60;62.33;99575.13;4360921;32;34806;-81
2021/01/03 02:27:39;;;;;;;2.60;1.50;;;;;;;5.96;61.51;99571.47;4373310;32;34239;-81
2021/01/03 02:30:08;;;;;;;5.30;2.75;;;;;;;5.97;60.92;99568.69;4373362;32;33709;-81
2021/01/03 02:32:37;;;;;;;0.95;0.95;;;;;;;6.00;61.00;99568.47;4361026;32;35556;-81
2021/01/03 02:35:07;;;;;;;0.85;0.85;;;;;;;5.87;60.91;99566.91;4372302;32;34151;-81
2021/01/03 02:37:39;;;;;;;0.65;0.65;;;;;;;5.56;62.46;99567.56;4386837;32;36696;-81
2021/01/03 02:40:13;;;;;;;1.80;1.70;;;;;;;5.93;61.13;99554.06;4373579;32;33504;-81
2021/01/03 02:42:41;;;;;;;0.82;0.57;;;;;;;6.10;60.46;99535.09;4385337;32;34550;-81
2021/01/03 02:45:17;;;;;;;1.55;1.45;;;;;;;6.16;60.50;99529.28;4372769;32;36906;-81
2021/01/03 02:47:44;;;;;;;0.93;0.88;;;;;;;5.68;61.75;99533.16;4385300;32;33807;-81
2021/01/03 02:50:15;;;;;;;1.23;1.12;;;;;;;5.91;61.18;99518.19;4373331;32;34415;-81
2021/01/03 02:52:43;;;;;;;0.50;0.50;;;;;;;5.78;61.01;99512.19;4372943;32;34092;-81
2021/01/03 02:55:12;;;;;;;1.25;1.17;;;;;;;5.50;62.58;99502.09;4385550;32;34889;-81
2021/01/03 02:57:39;;;;;;;1.50;1.37;;;;;;;5.62;61.80;99503.78;4373247;32;34854;-81
2021/01/03 03:00:09;;;;;;;0.70;0.70;;;;;;;5.57;62.26;99492.72;4373232;32;33474;-81
2021/01/03 03:02:36;;;;;;;1.58;0.93;;;;;;;5.47;62.34;99457.47;4373037;32;37079;-81
2021/01/03 03:05:06;;;;;;;4.47;1.33;;;;;;;5.52;62.53;99452.69;4372784;32;32494;-81
2021/01/03 03:07:34;;;;;;;1.52;1.42;;;;;;;5.37;62.80;99472.34;4372695;32;33718;-81
2021/01/03 03:10:01;;;;;;;1.60;1.52;;;;;;;5.32;63.08;99486.84;4372666;32;35771;-80
2021/01/03 03:12:28;;;;;;;4.50;1.90;;;;;;;5.40;62.93;99492.38;4372708;32;34703;-81
2021/01/03 03:14:56;;;;;;;0.32;0.32;;;;;;;5.35;62.74;99490.09;4372775;32;34922;-81
2021/01/03 03:17:23;;;;;;;1.55;1.45;;;;;;;5.40;62.89;99510.84;4372445;32;33946;-81
2021/01/03 03:19:51;;;;;;;0.40;0.40;;;;;;;5.57;62.38;99508.56;4372957;32;33537;-81
2021/01/03 03:22:18;;;;;;;0.37;0.37;;;;;;;5.82;61.44;99505.72;4372549;32;36728;-81
2021/01/03 03:24:45;;;;;;;1.10;1.05;;;;;;;5.50;62.63;99529.31;4372347;32;36185;-81
2021/01/03 03:27:13;;;;;;;3.58;1.77;;;;;;;5.52;62.54;99537.13;4372584;32;33017;-81
2021/01/03 03:29:46;;;;;;;3.12;2.35;;;;;;;5.39;63.07;99546.94;4370766;32;34435;-81
2021/01/03 03:32:14;;;;;;;1.70;0.60;;;;;;;5.84;61.81;99543.37;4384725;32;37457;-81
2021/01/03 03:34:41;;;;;;;1.80;0.80;;;;;;;6.01;60.89;99530.53;4384838;32;34436;-81
2021/01/03 03:37:08;;;;;;;1.33;0.88;;;;;;;5.88;61.41;99523.72;4372490;32;33030;-81
2021/01/03 03:39:36;;;;;;;1.75;0.57;;;;;;;5.94;61.26;99524.06;4384666;32;34223;-81
2021/01/03 03:42:04;;;;;;;;;;;;;;;5.98;61.13;99527.31;4372385;32;36936;-81
2021/01/03 03:44:31;;;;;;;0.80;0.80;;;;;;;5.88;61.15;99513.16;4360250;32;32717;-81
2021/01/03 03:47:01;;;;;;;;;;;;;;;5.81;61.58;99518.09;4374707;32;32831;-81
2021/01/03 03:49:29;;;;;;;2.15;1.00;;;;;;;5.57;62.32;99508.56;4374633;32;34594;-81
2021/01/03 03:51:57;;;;;;;;;;;;;;;5.71;62.28;99492.50;4374634;32;35788;-81
2021/01/03 03:54:26;;;;;;;1.45;1.45;;;;;;;5.66;62.45;99495.50;4374482;32;33584;-82
2021/01/03 03:56:56;;;;;;;2.10;1.20;;;;;;;5.77;62.01;99495.47;4374477;32;33428;-81
2021/01/03 03:59:24;;;;;;;0.77;0.57;;;;;;;5.92;61.59;99501.38;4374680;32;34214;-81
2021/01/03 04:01:53;;;;;;;1.92;0.68;;;;;;;6.01;61.17;99500.63;4362703;32;33998;-81
2021/01/03 04:04:22;;;;;;;1.08;1.00;;;;;;;5.72;62.29;99508.22;4374310;32;33853;-81
2021/01/03 04:06:50;;;;;;;2.00;1.12;;;;;;;5.86;nan;99507.16;4374447;32;32818;-81
2021/01/03 04:09:17;;;;;;;1.27;1.25;;;;;;;5.87;61.94;99500.91;4373985;32;34215;-81
2021/01/03 04:11:47;;;;;;;1.30;1.05;;;;;;;5.74;62.67;99498.37;4361590;32;35336;-81
2021/01/03 04:14:18;;;;;;;1.52;1.27;;;;;;;5.72;62.73;99491.53;4374060;32;34789;-81
2021/01/03 04:16:54;;;;;;;1.15;1.12;;;;;;;5.76;62.51;99485.88;4374159;32;34675;-81
2021/01/03 04:19:22;;;;;;;2.35;0.93;;;;;;;5.69;62.59;99482.06;4374542;32;33654;-81
2021/01/03 04:21:56;;;;;;;1.12;1.00;;;;;;;5.77;62.50;99481.47;4374264;32;35641;-81
2021/01/03 04:24:29;;;;;;;1.17;1.08;;;;;;;5.83;62.45;99484.47;4375480;27;34161;-81
2021/01/03 04:26:59;;;;;;;1.80;1.48;;;;;;;5.69;63.01;99478.59;4360092;32;33194;-81
2021/01/03 04:29:27;;;;;;;5.28;1.67;;;;;;;5.71;62.90;99468.75;4337332;32;34343;-81
2021/01/03 04:32:00;;;;;;;1.60;1.50;;;;;;;5.92;62.49;99469.69;4336880;33;34806;-81
2021/01/03 04:34:28;;;;;;;1.37;1.27;;;;;;;5.98;62.24;99467.41;4336777;33;35094;-81
2021/01/03 04:36:58;;;;;;;0.73;0.73;;;;;;;5.64;63.13;99457.84;4336695;33;32147;-81
2021/01/03 04:39:27;;;;;;;0.35;0.35;;;;;;;5.61;63.47;99458.06;4324881;32;34030;-81
2021/01/03 04:42:16;;;;;;;1.20;1.10;;;;;;;5.92;62.49;99465.28;4336749;33;34214;-81
2021/01/03 04:44:46;;;;;;;2.35;2.15;;;;;;;6.03;62.31;99469.66;4337116;33;35398;-81
2021/01/03 04:47:13;;;;;;;0.52;0.52;;;;;;;6.01;62.40;99468.97;4336569;33;34213;-81
2021/01/03 04:49:45;;;;;;;1.52;1.42;;;;;;;6.14;62.01;99469.66;4388237;32;33622;-81
2021/01/03 04:52:25;;;;;;;1.58;1.48;;;;;;;5.99;62.42;99482.31;4337019;32;35082;-81
2021/01/03 04:55:26;;;;;;;0.90;0.88;;;;;;;5.91;62.87;99482.06;4336768;33;35321;-81
2021/01/03 04:58:20;;;;;;;1.10;0.98;;;;;;;5.81;63.69;99489.06;4349936;32;33945;-81
2021/01/03 05:01:24;;;;;;;6.32;2.03;;;;;;;5.88;63.19;99481.47;4310881;33;34533;-81
2021/01/03 05:03:55;;;;;;;1.52;1.23;;;;;;;5.85;63.80;99486.97;4336219;33;37015;-81
2021/01/03 05:06:24;;;;;;;9.73;1.67;;;;;;;5.85;63.64;99490.47;4387550;32;34968;-81
2021/01/03 05:08:55;;;;;;;1.95;1.23;;;;;;;5.79;63.78;99483.03;4375003;32;34890;-81
2021/01/03 05:11:48;;;;;;;7.28;2.03;;;;;;;5.77;63.99;99487.56;4374725;32;33680;-81
2021/01/03 05:14:34;;;;;;;0.40;0.40;;;;;;;5.74;64.21;99482.53;4375426;32;34594;-81
2021/01/03 05:17:01;;;;;;;3.83;2.08;;;;;;;5.54;64.69;99485.91;4362610;32;34173;-81
2021/01/03 05:19:29;;;;;;;1.75;0.50;;;;;;;5.52;64.91;99489.63;4324452;32;32002;-81
2021/01/03 05:21:57;;;;;;;1.33;0.93;;;;;;;5.51;64.94;99480.03;4375188;32;35567;-82
2021/01/03 05:24:26;;;;;;;1.52;1.42;;;;;;;5.49;64.99;99495.16;4375287;32;35489;-81
2021/01/03 05:26:55;;;;;;;1.52;1.40;;;;;;;5.39;65.46;99490.69;4374712;32;35790;-81
2021/01/03 05:29:26;;;;;;;3.95;0.52;;;;;;;5.80;64.44;99486.53;4375052;32;32544;-81
2021/01/03 05:32:00;;;;;;;1.95;1.52;;;;;;;5.47;65.10;99489.13;4363385;32;34182;-81
2021/01/03 05:34:42;;;;;;;1.45;0.98;;;;;;;5.85;64.20;99489.63;4375292;32;35571;-81
2021/01/03 05:37:13;;;;;;;1.35;0.88;;;;;;;5.89;63.71;99497.19;4374431;32;35044;-81
2021/01/03 05:39:41;;;;;;;1.15;0.52;;;;;;;5.85;63.85;99506.31;4375888;32;33699;-81
2021/01/03 05:42:18;;;;;;;1.40;1.23;;;;;;;5.76;64.07;99503.50;4323855;33;33505;-81
2021/01/03 05:45:02;;;;;;;2.42;0.68;;;;;;;5.76;64.20;99507.00;4387724;32;36685;-81
2021/01/03 05:47:38;;;;;;;1.25;0.85;;;;;;;5.75;64.09;99507.97;4374944;32;33935;-81
2021/01/03 05:50:22;;;;;;;2.40;2.20;;;;;;;5.72;64.17;99502.09;4375567;32;34201;-81
2021/01/03 05:53:14;;;;;;;2.00;0.70;;;;;;;5.53;64.69;99512.41;4325288;33;33661;-81
2021/01/03 05:55:51;;;;;;;0.60;0.60;;;;;;;5.65;64.45;99514.94;4331163;32;34085;-82
2021/01/03 05:58:21;;;;;;;1.10;0.95;;;;;;;5.81;63.83;99522.50;4387591;32;34845;-81
2021/01/03 06:00:49;;;;;;;1.37;1.37;;;;;;;5.86;63.54;99515.91;4363089;32;33378;-81
2021/01/03 06:03:29;;;;;;;2.40;1.58;;;;;;;5.51;64.55;99525.72;4387406;32;36773;-81
2021/01/03 06:06:08;;;;;;;0.90;0.90;;;;;;;6.00;63.27;99528.87;4388039;32;36799;-81
2021/01/03 06:08:38;;;;;;;2.15;2.05;;;;;;;5.79;63.73;99511.25;4387241;32;34371;-81
2021/01/03 06:11:15;;;;;;;1.27;1.02;;;;;;;5.57;64.28;99504.13;4387250;32;33584;-81
2021/01/03 06:13:55;;;;;;;1.65;1.50;;;;;;;5.46;64.94;99502.47;4375048;32;34580;-81
2021/01/03 06:16:25;;;;;;;1.52;1.42;;;;;;;5.51;64.38;99501.16;4336023;33;35520;-81
2021/01/03 06:19:29;;;;;;;0.93;0.93;;;;;;;5.63;64.35;99502.81;4387518;32;34121;-81
2021/01/03 06:21:57;;;;;;;1.08;1.08;;;;;;;5.47;64.87;99500.53;4374796;32;33850;-81
2021/01/03 06:24:27;;;;;;;1.27;1.17;;;;;;;5.34;65.37;99509.53;4387120;32;34264;-81
2021/01/03 06:27:01;;;;;;;2.42;2.22;;;;;;;5.36;65.23;99504.97;4394700;32;36436;-81
2021/01/03 06:29:35;;;;;;;1.35;1.25;;;;;;;5.36;65.46;99515.50;4383171;32;33978;-81
2021/01/03 06:32:31;;;;;;;0.60;0.22;;;;;;;5.50;64.77;99513.47;4383117;32;33584;-81
2021/01/03 06:35:22;;;;;;;1.90;0.82;;;;;;;5.73;63.79;99520.47;4382451;32;33748;-81
2021/01/03 06:37:56;;;;;;;0.82;0.60;;;;;;;5.33;65.24;99513.13;4382802;32;33499;-81
2021/01/03 06:40:31;;;;;;;3.92;1.65;;;;;;;5.63;64.34;99529.19;4382842;32;34139;-81
2021/01/03 06:43:23;;;;;;;5.32;1.67;;;;;;;5.75;63.93;99536.16;4382966;32;35462;-81
2021/01/03 06:46:27;;;;;;;2.20;2.00;;;;;;;5.73;64.09;99536.28;4371878;32;33530;-81
2021/01/03 06:49:13;;;;;;;2.37;1.65;;;;;;;5.61;64.64;99531.94;4382721;32;34495;-81
2021/01/03 06:52:02;;;;;;;2.65;0.88;;;;;;;5.75;64.19;99544.06;4382237;32;34654;-81
2021/01/03 06:54:53;;;;;;;1.67;1.58;;;;;;;5.95;63.50;99546.84;4385666;32;33805;-81
2021/01/03 06:57:48;;;;;;;1.50;0.95;;;;;;;5.58;64.43;99547.22;4403531;32;36847;-81
2021/01/03 07:00:18;;;;;;;0.80;0.77;;;;;;;5.65;64.62;99549.25;4397521;32;36138;-81
2021/01/03 07:02:55;;;;;;;4.95;1.87;;;;;;;5.55;64.99;99550.06;4397548;32;33880;-81
2021/01/03 07:05:22;;;;;;;1.40;1.12;;;;;;;5.56;65.19;99549.09;4397023;32;33223;-81
2021/01/03 07:08:03;;;;;;;2.28;2.03;;;;;;;5.40;65.89;99546.00;4385331;32;34124;-81
2021/01/03 07:10:35;;;;;;;2.30;1.95;;;;;;;5.64;65.08;99549.34;4384941;32;36358;-81
2021/01/03 07:13:25;;;;;;;2.83;2.10;;;;;;;5.45;65.85;99550.91;4382053;32;34601;-81
2021/01/03 07:15:54;;;;;;;1.65;1.55;;;;;;;5.36;66.21;99547.16;4369731;32;33593;-81
2021/01/03 07:18:45;;;;;;;2.33;1.60;;;;;;;5.36;66.27;99552.44;4394474;32;35961;-81
2021/01/03 07:21:36;;;;;;;1.33;0.90;;;;;;;5.76;64.93;99551.03;4383331;32;36109;-81
2021/01/03 07:24:26;;;;;;;2.15;2.05;;;;;;;5.90;64.25;99553.47;4384214;32;35742;-81
2021/01/03 07:27:25;;;;;;;1.10;1.10;;;;;;;5.42;66.15;99551.97;4396469;32;35343;-81
2021/01/03 07:29:55;;;;;;;1.65;1.20;;;;;;;5.60;65.95;99550.56;4383914;32;34664;-81
2021/01/03 07:32:38;;;;;;;2.00;0.80;;;;;;;5.68;65.73;99559.53;4384045;32;36588;-81
2021/01/03 07:35:11;;;;;;;2.90;2.75;;;;;;;5.85;65.31;99568.81;4398997;32;34263;-81
2021/01/03 07:37:38;;;;;;;2.08;1.37;;;;;;;6.08;64.60;99573.97;4406898;32;33836;-81
2021/01/03 07:40:10;;;;;;;5.18;2.55;;;;;;;5.87;65.21;99569.56;4386673;32;35056;-81
2021/01/03 07:43:01;;;;;;;3.03;2.33;;;;;;;5.96;64.73;99572.28;4399083;32;36625;-81
2021/01/03 07:45:32;;;;;;;1.92;1.35;;;;;;;6.03;64.57;99568.22;4374225;32;32937;-81
2021/01/03 07:48:00;;;;;;;1.02;1.02;;;;;;;5.93;65.32;99575.19;4398922;32;34768;-81
2021/01/03 07:50:37;;;;;;;7.07;2.33;;;;;;;6.08;64.90;99559.94;4398812;32;35537;-81
2021/01/03 07:53:25;;;;;;;3.33;2.47;;;;;;;6.12;64.51;99561.34;4399246;32;35432;-81
2021/01/03 07:55:53;;;;;;;5.68;3.75;;;;;;;5.89;65.70;99565.81;4399148;32;35040;-81
2021/01/03 07:58:23;;;;;;;4.95;2.72;;;;;;;6.29;64.29;99561.69;4399030;32;33339;-81
2021/01/03 08:00:59;;;;;;;3.25;2.92;;;;;;;6.22;64.43;99563.16;4387039;32;33566;-81
2021/01/03 08:03:29;;;;;;;1.12;1.02;;;;;;;6.25;64.49;99559.44;4399132;32;34851;-82
2021/01/03 08:06:06;;;;;;;7.65;3.30;;;;;;;6.20;64.90;99565.09;4399055;32;34414;-81
2021/01/03 08:08:34;;;;;;;1.30;1.20;;;;;;;6.29;64.65;99559.06;4399698;32;34682;-81
2021/01/03 08:11:39;;;;;;;1.05;0.85;;;;;;;6.29;64.67;99558.22;4386640;32;34252;-81
2021/01/03 08:14:13;;;;;;;3.65;3.20;;;;;;;6.03;65.82;99572.66;4386480;32;36327;-81
2021/01/03 08:16:40;;;;;;;2.58;1.60;;;;;;;6.33;64.69;99562.31;4373702;32;34476;-81
2021/01/03 08:19:09;;;;;;;1.62;1.52;;;;;;;6.41;64.68;99551.94;4398558;32;33650;-81
2021/01/03 08:21:38;;;;;;;6.72;3.28;;;;;;;6.31;64.81;99556.28;4398596;32;33484;-81
2021/01/03 08:24:10;;;;;;;1.10;0.93;;;;;;;6.37;64.58;99559.28;4372261;32;35693;-80
2021/01/03 08:26:42;;;;;;;2.60;1.60;;;;;;;6.31;65.08;99556.28;4392303;32;34213;-81
2021/01/03 08:29:33;;;;;;;0.98;0.98;;;;;;;6.23;65.27;99574.56;4374157;32;34317;-80
2021/01/03 08:32:06;;;;;;;3.72;3.25;;;;;;;6.29;64.91;99582.84;4398382;32;33921;-81
2021/01/03 08:34:42;;;;;;;7.12;1.73;;;;;;;6.43;64.54;99579.91;4398213;32;34636;-81
2021/01/03 08:37:24;;;;;;;2.05;1.95;;;;;;;6.15;65.61;99587.53;4386687;32;34007;-81
2021/01/03 08:39:56;;;;;;;1.42;1.33;;;;;;;6.14;65.44;99584.03;4386368;32;35196;-81
2021/01/03 08:42:39;;;;;;;4.53;2.08;;;;;;;6.27;65.25;99584.78;4386717;32;33837;-81
2021/01/03 08:45:07;;;;;;;6.20;2.33;;;;;;;6.53;64.53;99580.84;4386835;32;34766;-81
2021/01/03 08:47:38;;;;;;;4.57;2.35;;;;;;;6.44;64.80;99591.34;4373524;32;34215;-81
2021/01/03 08:50:15;;;;;;;3.90;2.62;;;;;;;6.71;63.93;99591.75;4386077;32;33790;-81
2021/01/03 08:52:53;;;;;;;1.52;1.42;;;;;;;6.64;64.18;99596.66;4398634;32;33350;-81
2021/01/03 08:55:21;;;;;;;2.75;1.50;;;;;;;6.83;63.77;99594.22;4386172;32;34918;-81
2021/01/03 08:58:02;;;;;;;2.42;2.22;;;;;;;6.81;63.64;99596.13;4386314;32;34972;-81
2021/01/03 09:00:39;;;;;;;3.85;1.45;;;;;;;7.00;63.54;99600.78;4373735;32;32899;-81
2021/01/03 09:03:16;;;;;;;1.02;0.95;;;;;;;6.82;63.89;99594.34;4387108;32;33752;-81
2021/01/03 09:05:45;;;;;;;3.40;2.00;;;;;;;6.61;64.27;99591.63;4385601;32;34416;-81
2021/01/03 09:08:21;;;;;;;2.08;1.62;;;;;;;6.63;64.92;99595.00;4386406;32;36283;-81
2021/01/03 09:10:49;;;;;;;2.28;1.92;;;;;;;6.56;65.25;99596.47;4373939;32;33911;-81
2021/01/03 09:13:17;;;;;;;1.77;1.67;;;;;;;6.86;64.70;99598.41;4398776;32;33407;-81
2021/01/03 09:15:52;;;;;;;4.50;2.20;;;;;;;7.07;63.82;99600.13;4398575;32;33548;-81
2021/01/03 09:18:25;;;;;;;6.12;2.05;;;;;;;7.00;64.52;99601.59;4386296;32;33959;-81
2021/01/03 09:21:04;;;;;;;2.72;1.73;;;;;;;7.03;64.67;99598.72;4386269;32;33943;-81
2021/01/03 09:23:33;;;;;;;2.85;1.73;;;;;;;6.97;65.16;99593.91;4385956;32;35468;-81
2021/01/03 09:26:03;;;;;;;2.97;2.22;;;;;;;6.99;65.26;99596.44;4391195;32;35647;-81
2021/01/03 09:28:42;;;;;;;5.93;3.22;;;;;;;7.12;65.26;99594.47;4374906;32;35087;-81
2021/01/03 09:31:18;;;;;;;4.95;3.42;;;;;;;7.21;64.84;99583.97;4388289;32;33948;-81
2021/01/03 09:34:14;;;;;;;2.10;2.00;;;;;;;7.19;64.87;99590.34;4400243;32;34196;-81
2021/01/03 09:36:51;;;;;;;2.75;2.55;;;;;;;7.35;64.24;99583.63;4387527;32;34951;-81
2021/01/03 09:39:43;;;;;;;3.60;2.08;;;;;;;7.20;64.84;99579.63;4400312;32;34850;-81
2021/01/03 09:42:29;;;;;;;1.60;1.30;;;;;;;7.24;65.21;99582.84;4401030;32;33853;-81
2021/01/03 09:45:04;;;;;;;3.25;2.75;;;;;;;7.30;65.01;99574.41;4400080;32;34804;-81
2021/01/03 09:47:41;;;;;;;2.85;2.08;;;;;;;7.51;64.06;99578.72;4388575;32;35299;-81
2021/01/03 09:50:27;;;;;;;3.75;2.37;;;;;;;7.59;64.17;99581.56;4387561;32;34310;-81
2021/01/03 09:53:09;;;;;;;2.65;2.35;;;;;;;7.48;64.63;99578.12;4401020;32;31831;-81
2021/01/03 09:55:48;;;;;;;6.03;2.60;;;;;;;7.59;64.35;99572.75;4388156;32;34360;-81
2021/01/03 09:58:16;;;;;;;3.12;2.85;;;;;;;7.37;65.10;99576.38;4376046;32;34981;-81
2021/01/03 10:00:57;;;;;;;15.87;6.73;;;;;;;7.79;63.98;99575.38;4387490;32;34378;-81
2021/01/03 10:03:37;;;;;;;3.33;3.03;;;;;;;7.72;63.96;99576.88;4388122;32;33858;-81
2021/01/03 10:06:24;;;;;;;3.45;3.15;;;;;;;7.91;63.64;99582.28;4375952;32;32469;-81
2021/01/03 10:09:15;;;;;;;3.92;2.92;;;;;;;8.18;63.10;99579.00;4375698;32;35587;-81
2021/01/03 10:11:44;;;;;;;6.60;3.55;;;;;;;8.15;63.27;99577.50;4400441;32;35618;-81
2021/01/03 10:14:17;;;;;;;2.45;1.50;;;;;;;8.11;64.01;99577.91;4388373;32;33802;-81
2021/01/03 10:16:44;;;;;;;2.17;1.48;;;;;;;8.21;63.47;99582.28;4391700;32;34028;-81
2021/01/03 10:19:18;;;;;;;3.03;2.78;;;;;;;8.17;63.52;99564.09;4389480;32;34579;-81
2021/01/03 10:21:46;;;;;;;2.40;2.20;;;;;;;8.22;63.37;99577.81;4367137;32;33531;-81
2021/01/03 10:24:23;;;;;;;3.53;2.72;;;;;;;8.05;63.91;99570.47;4398999;32;32970;-82
2021/01/03 10:27:02;;;;;;;2.45;2.25;;;;;;;7.96;64.33;99564.19;4386402;32;33583;-83
2021/01/03 10:29:31;;;;;;;6.68;1.90;;;;;;;7.86;65.04;99551.84;4335496;33;35964;-83
2021/01/03 10:31:59;;;;;;;4.55;2.53;;;;;;;8.15;64.11;99558.09;4337557;32;34355;-83
2021/01/03 10:34:27;;;;;;;2.50;2.33;;;;;;;7.89;65.12;99559.53;4387470;32;32115;-83
2021/01/03 10:36:58;;;;;;;6.07;1.70;;;;;;;8.03;64.95;99556.53;4387608;32;33248;-83
2021/01/03 10:39:28;;;;;;;3.37;2.75;;;;;;;7.96;65.62;99556.22;4387672;32;34816;-83
2021/01/03 10:41:57;;;;;;;4.25;3.30;;;;;;;8.33;64.22;99549.41;4335646;33;33856;-82
2021/01/03 10:44:24;;;;;;;3.55;3.15;;;;;;;8.23;64.78;99550.34;4387590;32;34076;-85
2021/01/03 10:46:55;;;;;;;2.75;2.55;;;;;;;8.43;64.31;99537.84;4335481;33;33347;-85
2021/01/03 10:49:24;;;;;;;3.40;2.40;;;;;;;8.75;63.12;99543.75;4386785;32;34826;-85
2021/01/03 10:51:51;;;;;;;;;;;;;;;8.56;63.72;99537.56;4387557;32;34169;-85
2021/01/03 10:54:26;;;;;;;3.60;1.73;;;;;;;8.76;62.87;99534.81;4372893;32;33530;-85
2021/01/03 10:57:07;;;;;;;3.83;2.20;;;;;;;8.52;63.35;99528.25;4379362;32;33331;-85
2021/01/03 10:59:34;;;;;;;7.12;2.50;;;;;;;8.31;64.24;99538.09;4387179;32;35823;-85
2021/01/03 11:02:02;;;;;;;5.15;3.05;;;;;;;8.23;64.55;99542.41;4386469;32;34456;-85
2021/01/03 11:04:29;;;;;;;10.52;3.72;;;;;;;8.28;64.64;99535.72;4386382;32;33921;-85
2021/01/03 11:06:57;;;;;;;2.95;2.47;;;;;;;8.45;64.05;99538.53;4386932;32;33624;-85
2021/01/03 11:09:27;;;;;;;3.60;2.28;;;;;;;8.07;65.45;99534.94;4375008;32;33871;-85
2021/01/03 11:12:01;;;;;;;2.75;2.50;;;;;;;8.52;63.95;99528.25;4336401;32;34065;-85
2021/01/03 11:14:29;;;;;;;1.90;1.80;;;;;;;8.45;64.41;99530.56;4386697;32;34141;-85
2021/01/03 11:16:59;;;;;;;2.90;2.37;;;;;;;8.63;63.19;99526.28;4324584;32;32400;-85
2021/01/03 11:19:27;;;;;;;2.60;2.05;;;;;;;8.63;63.53;99525.44;4334822;33;34834;-85
2021/01/03 11:21:56;;;;;;;5.45;3.95;;;;;;;8.40;64.39;99516.06;4323421;32;32705;-84
2021/01/03 11:24:24;;;;;;;4.78;3.20;;;;;;;8.83;62.71;99525.31;4334843;33;34351;-85
2021/01/03 11:26:53;;;;;;;2.15;1.33;;;;;;;8.68;63.49;99517.91;4386562;32;33363;-84
2021/01/03 11:29:24;;;;;;;;;;;;;;;8.39;64.35;99521.53;4387775;32;36563;-84
2021/01/03 11:31:55;;;;;;;4.85;3.10;;;;;;;8.29;64.84;99518.00;4373495;32;33964;-84
2021/01/03 11:34:26;;;;;;;2.00;1.87;;;;;;;8.45;64.66;99514.66;4386519;32;33115;-86
2021/01/03 11:36:59;;;;;;;4.65;2.33;;;;;;;8.39;65.10;99513.56;4335111;32;34820;-85
2021/01/03 11:39:29;;;;;;;4.50;2.25;;;;;;;8.44;65.44;99513.00;4386339;32;34546;-85
2021/01/03 11:41:58;;;;;;;3.15;2.80;;;;;;;8.52;64.90;99520.28;4374282;32;35767;-87
2021/01/03 11:44:26;;;;;;;3.67;2.22;;;;;;;8.82;64.18;99522.81;4387054;32;34025;-86
2021/01/03 11:47:01;;;;;;;3.87;3.20;;;;;;;8.95;63.78;99523.34;4323356;32;34661;-85
2021/01/03 11:49:32;;;;;;;3.80;3.50;;;;;;;8.88;64.53;99515.13;4324102;33;34851;-86
2021/01/03 11:52:01;;;;;;;3.33;2.87;;;;;;;8.78;63.96;99519.59;4335951;32;35625;-85
2021/01/03 11:54:32;;;;;;;4.07;3.67;;;;;;;8.91;64.05;99512.16;4385812;32;32643;-85
2021/01/03 11:57:05;;;;;;;7.18;3.55;;;;;;;8.75;64.25;99513.72;4384305;32;33422;-87
2021/01/03 11:59:33;;;;;;;2.45;1.95;;;;;;;8.86;63.90;99502.97;4386417;32;35509;-85
2021/01/03 12:02:10;;;;;;;2.22;1.85;;;;;;;8.85;63.94;99506.59;4334817;33;35387;-86
2021/01/03 12:04:40;;;;;;;4.43;4.00;;;;;;;8.95;64.13;99512.72;4374049;32;33903;-85
2021/01/03 12:07:14;;;;;;;7.60;3.20;;;;;;;9.21;63.37;99509.38;4335486;32;35851;-87
2021/01/03 12:09:43;;;;;;;7.65;3.20;;;;;;;9.22;63.25;99504.87;4337258;33;35875;-86
2021/01/03 12:12:12;;;;;;;2.87;2.33;;;;;;;9.32;63.02;99509.19;4337525;33;34820;-81
2021/01/03 12:14:40;;;;;;;3.33;3.03;;;;;;;9.32;62.61;99503.88;4337378;33;33230;-81